Archival Weather

Heathrow

London, United Kingdom (EGLL)

Report from: Tuesday, June 18, 2024 11:50 AM BST
Current time: Monday, July 22, 2024 11:40 AM BST

Current weather – Weather history – Daily summaries
Weather forecast

Temperature20.0°C (68.0°F)
Dew point11.0°C (51.8°F)
Winds 5 kts (2.6 m/s, 5.8 mph) Vrb
Winds variableWinds variable from Northwest (320°) to Northeast (50°)
Visibility6.2 mi. (10 km)
Clouds Ceiling: Broken clouds 3,700 ft. (1,128 m)
Altimeter29.94 in.Hg (1014 mB)
Relative humidity56 %
Density altitude745 ft. (227 m)
Remarks Fully automated report
Corrected report
No significant changes expected in the next two hours
Flight conditions Visual Meteorological Conditions
Raw dataCOR EGLL 181050Z AUTO 35005KT 320V050 9999 BKN037 20/11 Q1014 NOSIG
An error has occurred. This application may no longer respond until reloaded. Reload 🗙